createdAt,value
2023-05-01T00:01:06.242Z,3.58
2023-05-01T00:03:33.173Z,6.25
2023-05-01T00:06:01.005Z,7.35
2023-05-01T00:08:27.666Z,3.58
2023-05-01T00:10:54.040Z,6.03
2023-05-01T00:13:21.966Z,6.30
2023-05-01T00:15:48.403Z,4.20
2023-05-01T00:18:14.821Z,5.63
2023-05-01T00:20:41.570Z,4.20
2023-05-01T00:23:08.636Z,4.13
2023-05-01T00:25:34.953Z,6.03
2023-05-01T00:28:01.273Z,4.88
2023-05-01T00:30:27.742Z,3.42
2023-05-01T00:32:54.266Z,5.00
2023-05-01T00:35:20.733Z,3.85
2023-05-01T00:37:47.118Z,4.07
2023-05-01T00:40:13.538Z,6.32
2023-05-01T00:42:40.765Z,4.07
2023-05-01T00:45:08.009Z,3.78
2023-05-01T00:47:37.801Z,3.80
2023-05-01T00:50:05.143Z,4.38
2023-05-01T00:52:31.704Z,10.93
2023-05-01T00:54:58.968Z,13.57
2023-05-01T00:57:25.288Z,4.03
2023-05-01T00:59:51.782Z,7.40
2023-05-01T01:02:18.230Z,7.45
2023-05-01T01:04:45.863Z,9.05
2023-05-01T01:07:15.340Z,4.57
2023-05-01T01:09:47.882Z,6.57
2023-05-01T01:12:14.245Z,7.93
2023-05-01T01:14:45.391Z,3.97
2023-05-01T01:17:14.169Z,9.02
2023-05-01T01:20:12.653Z,6.28
2023-05-01T01:22:41.185Z,4.72
2023-05-01T01:25:26.061Z,4.50
2023-05-01T01:27:58.632Z,10.45
2023-05-01T01:30:56.686Z,9.00
2023-05-01T01:33:32.339Z,5.55
2023-05-01T01:36:02.493Z,6.53
2023-05-01T01:38:37.737Z,5.65
2023-05-01T01:41:09.480Z,11.60
2023-05-01T01:43:40.576Z,5.22
2023-05-01T01:46:08.133Z,13.38
2023-05-01T01:48:37.078Z,8.80
2023-05-01T01:51:08.612Z,7.43
2023-05-01T01:53:37.408Z,3.88
2023-05-01T01:56:04.466Z,3.72
2023-05-01T01:58:32.037Z,5.05
2023-05-01T02:00:59.132Z,4.63
2023-05-01T02:03:26.306Z,5.32
2023-05-01T02:05:54.562Z,3.53
2023-05-01T02:08:21.334Z,7.97
2023-05-01T02:10:48.497Z,5.55
2023-05-01T02:13:15.505Z,8.77
2023-05-01T02:15:42.335Z,4.38
2023-05-01T02:18:08.902Z,5.03
2023-05-01T02:20:37.537Z,6.25
2023-05-01T02:23:05.539Z,6.72
2023-05-01T02:25:34.622Z,4.20
2023-05-01T02:28:03.383Z,6.15
2023-05-01T02:30:29.820Z,10.73
2023-05-01T02:32:57.410Z,5.30
2023-05-01T02:35:24.207Z,15.35
2023-05-01T02:37:51.332Z,5.10
2023-05-01T02:40:18.371Z,14.15
2023-05-01T02:42:45.628Z,5.93
2023-05-01T02:45:19.833Z,5.72
2023-05-01T02:47:48.483Z,8.55
2023-05-01T02:50:15.448Z,6.60
2023-05-01T02:52:42.862Z,7.55
2023-05-01T02:55:37.476Z,4.53
2023-05-01T02:58:03.823Z,11.55
2023-05-01T03:00:30.322Z,9.50
2023-05-01T03:02:58.237Z,7.57
2023-05-01T03:05:24.622Z,6.63
2023-05-01T03:07:51.232Z,5.22
2023-05-01T03:10:17.708Z,5.82
2023-05-01T03:12:44.332Z,4.32
2023-05-01T03:15:12.592Z,6.20
2023-05-01T03:17:39.052Z,7.78
2023-05-01T03:20:07.236Z,7.88
2023-05-01T03:22:33.626Z,14.48
2023-05-01T03:25:00.592Z,7.65
2023-05-01T03:27:27.331Z,5.07
2023-05-01T03:29:54.852Z,4.45
2023-05-01T03:32:22.708Z,8.27
2023-05-01T03:34:50.514Z,7.03
2023-05-01T03:37:17.870Z,6.80
2023-05-01T03:39:44.425Z,5.53
2023-05-01T03:42:33.555Z,9.20
2023-05-01T03:45:07.490Z,12.57
2023-05-01T03:47:33.967Z,9.50
2023-05-01T03:50:00.465Z,12.18
2023-05-01T03:52:27.289Z,13.63
2023-05-01T03:54:54.125Z,6.88
2023-05-01T03:57:23.774Z,8.32
2023-05-01T03:59:50.422Z,6.25
2023-05-01T04:02:18.805Z,5.70
2023-05-01T04:04:45.680Z,19.38
2023-05-01T04:07:12.959Z,7.10
2023-05-01T04:09:39.606Z,6.78
2023-05-01T04:12:06.280Z,11.55
2023-05-01T04:14:35.056Z,4.80
2023-05-01T04:17:02.175Z,10.48
2023-05-01T04:19:32.587Z,11.30
2023-05-01T04:22:00.004Z,6.45
2023-05-01T04:24:26.766Z,10.00
2023-05-01T04:26:53.575Z,6.80
2023-05-01T04:29:19.914Z,8.85
2023-05-01T04:31:46.293Z,4.03
2023-05-01T04:34:12.704Z,5.22
2023-05-01T04:36:39.562Z,7.43
2023-05-01T04:39:06.085Z,5.53
2023-05-01T04:41:32.836Z,8.30
2023-05-01T04:43:59.202Z,12.55
2023-05-01T04:46:26.472Z,7.82
2023-05-01T04:48:53.275Z,7.38
2023-05-01T04:51:20.517Z,6.00
2023-05-01T04:53:47.178Z,4.95
2023-05-01T04:56:21.388Z,5.03
2023-05-01T04:58:50.823Z,11.10
2023-05-01T05:01:21.143Z,9.48
2023-05-01T05:03:50.092Z,12.57
2023-05-01T05:06:18.417Z,6.18
2023-05-01T05:08:45.474Z,11.77
2023-05-01T05:11:11.912Z,15.25
2023-05-01T05:13:48.806Z,9.80
2023-05-01T05:16:15.603Z,10.35
2023-05-01T05:18:42.180Z,6.07
2023-05-01T05:21:10.336Z,9.48
2023-05-01T05:23:38.315Z,7.22
2023-05-01T05:26:05.703Z,7.85
2023-05-01T05:28:32.015Z,13.40
2023-05-01T05:30:58.840Z,9.90
2023-05-01T05:33:25.773Z,5.43
2023-05-01T05:35:52.527Z,6.43
2023-05-01T05:38:22.352Z,11.77
2023-05-01T05:40:54.061Z,10.43
2023-05-01T05:43:21.090Z,6.80
2023-05-01T05:45:47.515Z,8.13
2023-05-01T05:48:14.290Z,8.70
2023-05-01T05:50:41.147Z,8.45
2023-05-01T05:53:09.896Z,10.48
2023-05-01T05:55:37.053Z,9.40
2023-05-01T05:58:05.906Z,7.63
2023-05-01T06:00:33.125Z,8.40
2023-05-01T06:03:03.904Z,9.57
2023-05-01T06:05:31.718Z,14.20
2023-05-01T06:07:58.096Z,12.52
2023-05-01T06:10:24.462Z,7.20
2023-05-01T06:13:01.326Z,9.57
2023-05-01T06:15:38.250Z,15.00
2023-05-01T06:18:06.620Z,11.07
2023-05-01T06:20:33.009Z,5.72
2023-05-01T06:22:59.457Z,7.82
2023-05-01T06:25:33.066Z,10.60
2023-05-01T06:27:59.477Z,8.50
2023-05-01T06:30:26.032Z,6.75
2023-05-01T06:32:52.537Z,5.97
2023-05-01T06:35:20.987Z,12.15
2023-05-01T06:37:47.468Z,9.35
2023-05-01T06:40:14.066Z,7.72
2023-05-01T06:42:42.064Z,10.68
2023-05-01T06:45:08.552Z,8.07
2023-05-01T06:47:35.155Z,9.98
2023-05-01T06:50:02.996Z,12.65
2023-05-01T06:52:33.221Z,7.30
2023-05-01T06:54:59.563Z,10.52
2023-05-01T06:57:25.924Z,8.15
2023-05-01T06:59:52.350Z,8.85
2023-05-01T07:02:18.832Z,11.77
2023-05-01T07:04:45.435Z,17.48
2023-05-01T07:07:12.011Z,19.10
2023-05-01T07:09:38.758Z,9.98
2023-05-01T07:12:05.849Z,12.48
2023-05-01T07:14:32.374Z,23.38
2023-05-01T07:16:58.854Z,11.18
2023-05-01T07:19:25.345Z,13.43
2023-05-01T07:21:51.794Z,8.57
2023-05-01T07:24:18.104Z,6.20
2023-05-01T07:26:44.477Z,9.52
2023-05-01T07:29:11.758Z,8.93
2023-05-01T07:31:39.110Z,9.07
2023-05-01T07:34:05.548Z,7.07
2023-05-01T07:36:33.868Z,17.17
2023-05-01T07:39:01.002Z,8.68
2023-05-01T07:41:27.386Z,11.73
2023-05-01T07:43:53.799Z,5.45
2023-05-01T07:46:20.349Z,6.15
2023-05-01T07:48:46.681Z,9.13
2023-05-01T07:51:13.151Z,6.97
2023-05-01T07:53:40.747Z,6.30
2023-05-01T07:56:08.600Z,17.63
2023-05-01T07:58:36.165Z,17.38
2023-05-01T08:01:02.866Z,9.73
2023-05-01T08:03:30.234Z,9.38
2023-05-01T08:05:57.479Z,7.38
2023-05-01T08:08:24.008Z,8.43
2023-05-01T08:10:51.401Z,15.10
2023-05-01T08:13:18.254Z,10.15
2023-05-01T08:15:45.900Z,9.30
2023-05-01T08:18:12.421Z,10.63
2023-05-01T08:20:38.884Z,13.43
2023-05-01T08:23:05.328Z,16.10
2023-05-01T08:25:32.276Z,8.80
2023-05-01T08:27:58.734Z,11.02
2023-05-01T08:30:26.240Z,16.25
2023-05-01T08:32:52.821Z,8.30
2023-05-01T08:35:19.244Z,14.40
2023-05-01T08:37:45.617Z,10.48
2023-05-01T08:40:12.220Z,8.23
2023-05-01T08:42:39.078Z,16.27
2023-05-01T08:45:09.278Z,6.88
2023-05-01T08:47:37.021Z,15.57
2023-05-01T08:50:03.874Z,4.28
2023-05-01T08:52:31.763Z,11.27
2023-05-01T08:54:59.084Z,9.93
2023-05-01T08:57:26.695Z,12.30
2023-05-01T08:59:53.509Z,8.77
2023-05-01T09:02:21.128Z,16.63
2023-05-01T09:04:48.675Z,12.55
2023-05-01T09:07:15.314Z,9.60
2023-05-01T09:09:41.820Z,11.27
2023-05-01T09:12:15.475Z,13.10
2023-05-01T09:14:41.923Z,7.70
2023-05-01T09:17:08.493Z,10.90
2023-05-01T09:19:34.815Z,7.35
2023-05-01T09:22:01.420Z,15.35
2023-05-01T09:24:27.796Z,15.88
2023-05-01T09:26:55.210Z,7.90
2023-05-01T09:29:37.153Z,9.82
2023-05-01T09:32:13.435Z,9.85
2023-05-01T09:34:39.905Z,10.40
2023-05-01T09:37:06.384Z,9.15
2023-05-01T09:39:32.911Z,9.45
2023-05-01T09:41:59.253Z,12.07
2023-05-01T09:44:26.834Z,12.50
2023-05-01T09:46:54.395Z,16.25
2023-05-01T09:49:20.822Z,18.40
2023-05-01T09:51:48.319Z,10.95
2023-05-01T09:54:18.732Z,10.68
2023-05-01T09:56:48.445Z,9.55
2023-05-01T09:59:16.361Z,16.05
2023-05-01T10:01:44.001Z,10.50
2023-05-01T10:04:10.533Z,12.98
2023-05-01T10:06:37.714Z,16.00
2023-05-01T10:09:07.253Z,11.48
2023-05-01T10:11:53.755Z,9.43
2023-05-01T10:14:20.991Z,12.57
2023-05-01T10:16:47.450Z,10.48
2023-05-01T10:19:15.359Z,15.05
2023-05-01T10:21:41.727Z,18.15
2023-05-01T10:24:10.031Z,9.50
2023-05-01T10:26:37.043Z,8.30
2023-05-01T10:29:04.036Z,9.38
2023-05-01T10:31:32.658Z,13.25
2023-05-01T10:34:01.549Z,8.32
2023-05-01T10:36:33.388Z,6.40
2023-05-01T10:39:00.521Z,16.10
2023-05-01T10:41:47.838Z,11.68
2023-05-01T10:44:20.762Z,10.07
2023-05-01T10:46:47.266Z,13.05
2023-05-01T10:49:13.758Z,14.02
2023-05-01T10:51:58.417Z,12.45
2023-05-01T10:54:28.171Z,14.55
2023-05-01T10:56:55.955Z,10.70
2023-05-01T10:59:22.631Z,11.50
2023-05-01T11:01:51.772Z,8.25
2023-05-01T11:04:27.213Z,5.10
2023-05-01T11:07:08.125Z,7.80
2023-05-01T11:09:39.120Z,6.18
2023-05-01T11:12:07.559Z,8.98
2023-05-01T11:14:53.725Z,13.13
2023-05-01T11:17:43.826Z,4.78
2023-05-01T11:20:10.730Z,12.05
2023-05-01T11:22:41.453Z,8.77
2023-05-01T11:25:20.630Z,10.15
2023-05-01T11:27:50.679Z,11.75
2023-05-01T11:30:17.471Z,10.77
2023-05-01T11:32:44.712Z,7.13
2023-05-01T11:35:21.937Z,9.90
2023-05-01T11:37:48.806Z,8.50
2023-05-01T11:40:23.140Z,10.00
2023-05-01T11:42:50.436Z,6.88
2023-05-01T11:45:17.149Z,7.55
2023-05-01T11:47:43.522Z,10.55
2023-05-01T11:50:10.370Z,7.70
2023-05-01T11:52:49.865Z,7.47
2023-05-01T11:55:16.802Z,4.78
2023-05-01T11:57:50.227Z,9.38
2023-05-01T12:00:25.365Z,7.47
2023-05-01T12:03:08.473Z,5.18
2023-05-01T12:05:37.225Z,5.78
2023-05-01T12:08:11.466Z,6.28
2023-05-01T12:10:39.492Z,4.40
2023-05-01T12:13:06.833Z,6.32
2023-05-01T12:15:35.250Z,10.57
2023-05-01T12:18:01.825Z,9.85
2023-05-01T12:20:44.783Z,2.40
2023-05-01T12:23:11.944Z,3.53
2023-05-01T12:25:39.335Z,6.40
2023-05-01T12:28:10.434Z,6.30
2023-05-01T12:30:36.981Z,4.85
2023-05-01T12:33:13.915Z,4.45
2023-05-01T12:35:41.164Z,8.75
2023-05-01T12:38:16.995Z,10.80
2023-05-01T12:40:56.614Z,11.52
2023-05-01T12:43:44.420Z,14.00
2023-05-01T12:46:14.173Z,13.60
2023-05-01T12:48:41.223Z,13.07
2023-05-01T12:51:07.723Z,14.65
2023-05-01T12:53:34.120Z,14.15
2023-05-01T12:56:01.288Z,9.13
2023-05-01T12:58:36.987Z,13.13
2023-05-01T13:01:03.826Z,9.85
2023-05-01T13:03:30.671Z,12.73
2023-05-01T13:06:01.278Z,12.55
2023-05-01T13:08:31.489Z,11.18
2023-05-01T13:10:58.943Z,11.13
2023-05-01T13:13:26.123Z,11.70
2023-05-01T13:15:52.708Z,11.35
2023-05-01T13:18:20.561Z,10.18
2023-05-01T13:20:47.008Z,7.00
2023-05-01T13:23:13.502Z,8.32
2023-05-01T13:25:40.039Z,9.90
2023-05-01T13:28:06.681Z,7.75
2023-05-01T13:30:33.732Z,10.38
2023-05-01T13:33:00.585Z,6.30
2023-05-01T13:35:27.348Z,4.97
2023-05-01T13:37:54.004Z,10.52
2023-05-01T13:40:20.536Z,8.43
2023-05-01T13:42:48.183Z,6.50
2023-05-01T13:45:18.411Z,9.93
2023-05-01T13:47:44.845Z,4.57
2023-05-01T13:50:13.643Z,9.88
2023-05-01T13:52:41.311Z,7.85
2023-05-01T13:55:07.851Z,10.05
2023-05-01T13:57:35.893Z,6.13
2023-05-01T14:00:02.346Z,8.48
2023-05-01T14:02:43.575Z,6.07
2023-05-01T14:05:10.237Z,9.23
2023-05-01T14:07:40.067Z,9.55
2023-05-01T14:10:08.550Z,7.45
2023-05-01T14:12:34.903Z,6.30
2023-05-01T14:15:02.123Z,6.57
2023-05-01T14:17:33.058Z,6.30
2023-05-01T14:19:59.586Z,8.73
2023-05-01T14:22:28.972Z,5.95
2023-05-01T14:24:55.427Z,5.57
2023-05-01T14:27:22.070Z,6.72
2023-05-01T14:29:49.628Z,4.95
2023-05-01T14:32:16.287Z,7.88
2023-05-01T14:34:42.928Z,6.32
2023-05-01T14:37:09.503Z,6.50
2023-05-01T14:39:35.896Z,3.63
2023-05-01T14:42:02.706Z,6.68
2023-05-01T14:44:29.144Z,4.18
2023-05-01T14:46:56.113Z,4.90
2023-05-01T14:49:24.440Z,2.97
2023-05-01T14:51:51.855Z,4.90
2023-05-01T14:54:18.916Z,4.18
2023-05-01T14:56:46.464Z,8.00
2023-05-01T14:59:13.197Z,7.40
2023-05-01T15:01:39.963Z,4.07
2023-05-01T15:04:07.628Z,4.63
2023-05-01T15:06:34.602Z,6.65
2023-05-01T15:09:01.085Z,5.63
2023-05-01T15:11:27.431Z,5.78
2023-05-01T15:13:54.226Z,4.47
2023-05-01T15:16:20.602Z,5.10
2023-05-01T15:18:47.010Z,6.90
2023-05-01T15:21:13.544Z,3.90
2023-05-01T15:23:40.189Z,6.53
2023-05-01T15:26:06.548Z,5.13
2023-05-01T15:28:32.903Z,6.07
2023-05-01T15:30:59.270Z,6.38
2023-05-01T15:33:25.856Z,5.38
2023-05-01T15:35:52.753Z,5.55
2023-05-01T15:38:20.965Z,7.30
2023-05-01T15:40:50.032Z,8.15
2023-05-01T15:43:16.877Z,5.40
2023-05-01T15:45:44.421Z,4.43
2023-05-01T15:48:11.927Z,7.32
2023-05-01T15:50:38.392Z,6.75
2023-05-01T15:53:04.857Z,5.95
2023-05-01T15:55:31.264Z,5.60
2023-05-01T15:57:57.681Z,5.47
2023-05-01T16:00:24.829Z,6.18
2023-05-01T16:02:51.376Z,5.72
2023-05-01T16:05:19.136Z,10.80
2023-05-01T16:07:46.068Z,6.57
2023-05-01T16:10:12.584Z,5.95
2023-05-01T16:12:39.138Z,5.32
2023-05-01T16:15:05.728Z,5.90
2023-05-01T16:17:33.225Z,7.65
2023-05-01T16:20:00.605Z,6.18
2023-05-01T16:22:28.565Z,6.47
2023-05-01T16:24:55.080Z,7.22
2023-05-01T16:27:21.418Z,6.00
2023-05-01T16:29:47.779Z,5.95
2023-05-01T16:32:15.555Z,7.80
2023-05-01T16:34:42.615Z,8.18
2023-05-01T16:37:08.900Z,7.50
2023-05-01T16:39:38.649Z,10.07
2023-05-01T16:42:05.058Z,9.32
2023-05-01T16:44:32.797Z,9.23
2023-05-01T16:46:59.163Z,13.00
2023-05-01T16:49:29.350Z,13.48
2023-05-01T16:51:57.218Z,12.13
2023-05-01T16:54:24.900Z,9.70
2023-05-01T16:56:51.343Z,11.10
2023-05-01T16:59:17.700Z,10.48
2023-05-01T17:01:44.079Z,10.35
2023-05-01T17:04:11.801Z,12.48
2023-05-01T17:06:38.280Z,10.25
2023-05-01T17:09:04.698Z,11.18
2023-05-01T17:11:31.962Z,10.02
2023-05-01T17:13:58.515Z,9.60
2023-05-01T17:16:25.041Z,11.43
2023-05-01T17:18:51.585Z,11.38
2023-05-01T17:21:18.531Z,9.93
2023-05-01T17:23:45.199Z,9.75
2023-05-01T17:26:13.383Z,9.48
2023-05-01T17:28:39.718Z,9.35
2023-05-01T17:31:06.085Z,10.10
2023-05-01T17:33:32.646Z,10.57
2023-05-01T17:36:00.661Z,11.05
2023-05-01T17:38:27.171Z,10.15
2023-05-01T17:40:53.546Z,10.27
2023-05-01T17:43:20.730Z,11.48
2023-05-01T17:45:47.865Z,11.90
2023-05-01T17:48:14.392Z,11.10
2023-05-01T17:50:41.387Z,12.85
2023-05-01T17:53:45.386Z,14.50
2023-05-01T17:56:11.797Z,15.10
2023-05-01T17:58:38.863Z,14.32
2023-05-01T18:01:05.867Z,13.93
2023-05-01T18:03:35.292Z,15.65
2023-05-01T18:06:03.593Z,14.13
2023-05-01T18:08:30.491Z,16.80
2023-05-01T18:10:56.944Z,28.83
2023-05-01T18:13:27.940Z,16.98
2023-05-01T18:15:55.842Z,18.55
2023-05-01T18:18:23.693Z,18.58
2023-05-01T18:20:50.111Z,16.73
2023-05-01T18:23:17.770Z,16.40
2023-05-01T18:25:44.115Z,16.80
2023-05-01T18:28:10.529Z,17.98
2023-05-01T18:30:37.399Z,16.13
2023-05-01T18:33:04.717Z,17.92
2023-05-01T18:35:31.161Z,16.13
2023-05-01T18:37:57.535Z,17.70
2023-05-01T18:40:27.005Z,21.98
2023-05-01T18:42:53.446Z,20.15
2023-05-01T18:45:19.791Z,19.48
2023-05-01T18:47:46.266Z,19.55
2023-05-01T18:50:13.101Z,20.92
2023-05-01T18:52:41.678Z,21.58
2023-05-01T18:55:09.569Z,26.33
2023-05-01T18:57:37.943Z,20.10
2023-05-01T19:00:06.441Z,24.35
2023-05-01T19:02:32.896Z,24.30
2023-05-01T19:04:59.297Z,25.30
2023-05-01T19:07:29.067Z,28.60
2023-05-01T19:09:57.624Z,23.98
2023-05-01T19:12:25.001Z,28.02
2023-05-01T19:14:51.438Z,30.42
2023-05-01T19:17:18.158Z,26.60
2023-05-01T19:19:44.652Z,30.90
2023-05-01T19:22:11.392Z,32.30
2023-05-01T19:24:37.937Z,28.20
2023-05-01T19:27:04.745Z,28.50
2023-05-01T19:29:31.973Z,27.75
2023-05-01T19:32:00.271Z,29.92
2023-05-01T19:34:27.031Z,37.17
2023-05-01T19:36:56.742Z,31.25
2023-05-01T19:39:23.402Z,31.30
2023-05-01T19:41:50.285Z,30.17
2023-05-01T19:44:16.687Z,30.38
2023-05-01T19:46:43.310Z,34.35
2023-05-01T19:49:10.273Z,38.00
2023-05-01T19:51:36.744Z,32.95
2023-05-01T19:54:04.710Z,34.70
2023-05-01T19:56:31.238Z,36.90
2023-05-01T19:58:57.633Z,34.40
2023-05-01T20:01:24.444Z,38.08
2023-05-01T20:03:53.529Z,37.90
2023-05-01T20:06:20.074Z,34.00
2023-05-01T20:08:47.197Z,38.47
2023-05-01T20:11:13.718Z,38.17
2023-05-01T20:13:40.166Z,31.77
2023-05-01T20:16:06.778Z,42.00
2023-05-01T20:18:33.198Z,33.15
2023-05-01T20:20:59.703Z,43.70
2023-05-01T20:23:26.464Z,37.03
2023-05-01T20:25:53.371Z,38.85
2023-05-01T20:28:21.481Z,38.83
2023-05-01T20:30:48.704Z,38.63
2023-05-01T20:33:16.762Z,41.85
2023-05-01T20:35:43.417Z,41.63
2023-05-01T20:38:11.206Z,36.65
2023-05-01T20:40:40.669Z,41.25
2023-05-01T20:43:07.134Z,46.67
2023-05-01T20:45:33.500Z,40.42
2023-05-01T20:48:00.073Z,42.08
2023-05-01T20:50:27.711Z,44.55
2023-05-01T20:52:55.229Z,42.55
2023-05-01T20:55:23.374Z,46.58
2023-05-01T20:57:51.152Z,47.85
2023-05-01T21:00:18.838Z,43.67
2023-05-01T21:02:45.393Z,47.95
2023-05-01T21:05:12.128Z,45.03
2023-05-01T21:07:39.277Z,45.53
2023-05-01T21:10:06.703Z,36.53
2023-05-01T21:12:33.167Z,40.53
2023-05-01T21:15:01.626Z,39.00
2023-05-01T21:17:30.064Z,42.25
2023-05-01T21:19:56.570Z,44.78
2023-05-01T21:22:23.256Z,38.00
2023-05-01T21:24:52.307Z,37.78
2023-05-01T21:27:18.667Z,29.90
2023-05-01T21:29:46.176Z,30.80
2023-05-01T21:32:12.605Z,28.77
2023-05-01T21:34:38.941Z,24.75
2023-05-01T21:37:08.083Z,25.98
2023-05-01T21:39:34.407Z,29.45
2023-05-01T21:42:02.654Z,30.65
2023-05-01T21:44:29.641Z,27.33
2023-05-01T21:46:56.904Z,28.27
2023-05-01T21:49:26.689Z,27.65
2023-05-01T21:51:53.592Z,25.85
2023-05-01T21:54:21.502Z,29.58
2023-05-01T21:56:48.285Z,27.08
2023-05-01T21:59:14.773Z,27.10
2023-05-01T22:01:41.366Z,29.15
2023-05-01T22:04:08.085Z,31.10
2023-05-01T22:06:34.525Z,30.85
2023-05-01T22:09:00.863Z,33.38
2023-05-01T22:11:27.962Z,30.25
2023-05-01T22:13:54.353Z,30.00
2023-05-01T22:16:20.739Z,30.00
2023-05-01T22:18:49.324Z,33.00
2023-05-01T22:21:16.621Z,31.00
2023-05-01T22:23:43.014Z,30.45
2023-05-01T22:26:09.490Z,31.30
2023-05-01T22:28:35.816Z,31.38
2023-05-01T22:31:02.439Z,28.25
2023-05-01T22:33:28.881Z,29.40
2023-05-01T22:35:55.209Z,23.65
2023-05-01T22:38:21.634Z,22.63
2023-05-01T22:40:51.076Z,21.55
2023-05-01T22:43:17.466Z,22.33
2023-05-01T22:45:43.906Z,18.38
2023-05-01T22:48:10.621Z,18.58
2023-05-01T22:50:37.057Z,21.02
2023-05-01T22:53:03.828Z,21.42
2023-05-01T22:55:30.180Z,18.70
2023-05-01T22:57:57.939Z,24.27
2023-05-01T23:00:24.456Z,24.10
2023-05-01T23:02:51.000Z,24.30
2023-05-01T23:05:19.319Z,23.90
2023-05-01T23:07:45.872Z,24.13
2023-05-01T23:10:12.317Z,21.05
2023-05-01T23:12:42.881Z,23.45
2023-05-01T23:15:10.719Z,25.15
2023-05-01T23:17:37.490Z,24.98
2023-05-01T23:20:05.669Z,22.10
2023-05-01T23:22:32.331Z,23.65
2023-05-01T23:24:58.712Z,25.33
2023-05-01T23:27:25.226Z,29.58
2023-05-01T23:29:54.101Z,27.45
2023-05-01T23:32:24.983Z,29.73
2023-05-01T23:34:52.220Z,27.05
2023-05-01T23:37:18.565Z,27.92
2023-05-01T23:39:44.922Z,27.60
2023-05-01T23:42:11.445Z,28.58
2023-05-01T23:44:37.751Z,33.22
2023-05-01T23:47:04.389Z,31.65
2023-05-01T23:49:30.785Z,30.30
2023-05-01T23:51:57.137Z,31.98
2023-05-01T23:54:23.501Z,34.60
2023-05-01T23:56:49.870Z,36.92
2023-05-01T23:59:16.542Z,33.30
